createdAt,value
2023-01-20T00:01:28.669Z,3.88
2023-01-20T00:03:56.687Z,2.33
2023-01-20T00:06:24.942Z,2.13
2023-01-20T00:08:52.773Z,1.60
2023-01-20T00:11:20.187Z,1.92
2023-01-20T00:13:46.842Z,1.48
2023-01-20T00:16:13.921Z,2.75
2023-01-20T00:18:41.124Z,2.58
2023-01-20T00:21:10.294Z,2.17
2023-01-20T00:23:37.186Z,2.60
2023-01-20T00:26:11.591Z,3.00
2023-01-20T00:28:38.408Z,1.92
2023-01-20T00:31:15.162Z,2.05
2023-01-20T00:33:41.973Z,2.85
2023-01-20T00:36:09.009Z,2.70
2023-01-20T00:38:35.760Z,1.55
2023-01-20T00:41:02.353Z,2.38
2023-01-20T00:43:28.935Z,2.30
2023-01-20T00:45:55.649Z,2.20
2023-01-20T00:48:22.163Z,1.55
2023-01-20T00:50:48.906Z,2.65
2023-01-20T00:53:15.399Z,2.75
2023-01-20T00:55:41.920Z,2.08
2023-01-20T00:58:08.424Z,2.28
2023-01-20T01:00:35.373Z,2.10
2023-01-20T01:03:02.127Z,2.53
2023-01-20T01:05:28.737Z,3.10
2023-01-20T01:07:55.310Z,2.97
2023-01-20T01:10:21.821Z,2.72
2023-01-20T01:12:48.261Z,2.20
2023-01-20T01:15:15.465Z,2.40
2023-01-20T01:17:44.081Z,2.33
2023-01-20T01:20:11.881Z,2.25
2023-01-20T01:22:38.676Z,1.95
2023-01-20T01:25:05.565Z,2.17
2023-01-20T01:27:32.089Z,2.38
2023-01-20T01:29:58.624Z,2.35
2023-01-20T01:32:25.312Z,2.47
2023-01-20T01:34:51.843Z,3.58
2023-01-20T01:37:18.355Z,2.53
2023-01-20T01:39:44.886Z,2.53
2023-01-20T01:42:17.115Z,2.38
2023-01-20T01:45:12.175Z,2.03
2023-01-20T01:48:00.638Z,2.08
2023-01-20T01:50:33.101Z,2.13
2023-01-20T01:53:00.441Z,2.65
2023-01-20T01:55:30.931Z,1.85
2023-01-20T01:57:59.393Z,2.60
2023-01-20T02:00:26.303Z,2.75
2023-01-20T02:02:54.019Z,2.58
2023-01-20T02:05:21.890Z,2.42
2023-01-20T02:07:49.212Z,2.33
2023-01-20T02:10:16.985Z,2.90
2023-01-20T02:12:47.341Z,2.92
2023-01-20T02:15:14.416Z,2.78
2023-01-20T02:17:56.213Z,2.83
2023-01-20T02:20:40.483Z,3.05
2023-01-20T02:23:39.352Z,4.32
2023-01-20T02:26:17.781Z,2.55
2023-01-20T02:29:25.903Z,2.40
2023-01-20T02:32:10.290Z,2.55
2023-01-20T02:35:21.549Z,2.95
2023-01-20T02:37:55.298Z,3.35
2023-01-20T02:40:36.442Z,2.92
2023-01-20T02:43:38.117Z,3.08
2023-01-20T02:46:14.190Z,2.45
2023-01-20T02:49:09.761Z,2.78
2023-01-20T02:51:50.775Z,2.50
2023-01-20T02:54:20.669Z,2.08
2023-01-20T02:56:49.013Z,2.33
2023-01-20T02:59:20.014Z,2.92
2023-01-20T03:01:52.682Z,3.35
2023-01-20T03:04:23.780Z,3.20
2023-01-20T03:06:54.117Z,2.25
2023-01-20T03:09:25.668Z,2.25
2023-01-20T03:12:09.434Z,3.17
2023-01-20T03:14:35.925Z,3.03
2023-01-20T03:17:03.020Z,3.40
2023-01-20T03:19:29.849Z,2.47
2023-01-20T03:21:56.439Z,2.97
2023-01-20T03:24:23.970Z,2.58
2023-01-20T03:26:50.517Z,2.95
2023-01-20T03:29:18.297Z,2.30
2023-01-20T03:32:11.732Z,2.20
2023-01-20T03:34:41.944Z,6.40
2023-01-20T03:37:10.406Z,3.78
2023-01-20T03:39:39.957Z,2.70
2023-01-20T03:42:18.682Z,2.33
2023-01-20T03:44:45.147Z,2.45
2023-01-20T03:47:39.790Z,3.40
2023-01-20T03:50:15.177Z,2.45
2023-01-20T03:52:47.331Z,2.40
2023-01-20T03:55:30.244Z,2.75
2023-01-20T03:58:03.486Z,2.92
2023-01-20T04:00:33.145Z,2.95
2023-01-20T04:03:04.031Z,3.92
2023-01-20T04:05:30.749Z,2.72
2023-01-20T04:08:01.850Z,3.85
2023-01-20T04:10:31.204Z,2.95
2023-01-20T04:12:57.779Z,2.75
2023-01-20T04:15:35.384Z,3.53
2023-01-20T04:18:22.702Z,3.30
2023-01-20T04:21:02.180Z,3.50
2023-01-20T04:23:54.865Z,2.58
2023-01-20T04:26:21.374Z,2.78
2023-01-20T04:28:47.821Z,2.67
2023-01-20T04:31:29.229Z,2.78
2023-01-20T04:33:58.500Z,3.63
2023-01-20T04:36:24.962Z,2.55
2023-01-20T04:38:51.495Z,2.88
2023-01-20T04:41:18.180Z,2.60
2023-01-20T04:43:45.545Z,2.47
2023-01-20T04:46:13.292Z,2.95
2023-01-20T04:48:40.166Z,2.33
2023-01-20T04:51:09.193Z,3.75
2023-01-20T04:53:35.751Z,3.75
2023-01-20T04:56:02.527Z,3.05
2023-01-20T04:58:29.192Z,3.97
2023-01-20T05:00:55.794Z,3.20
2023-01-20T05:03:22.450Z,2.58
2023-01-20T05:05:55.636Z,2.30
2023-01-20T05:10:49.054Z,2.92
2023-01-20T05:13:16.032Z,3.17
2023-01-20T05:15:46.127Z,2.95
2023-01-20T05:18:12.811Z,2.70
2023-01-20T05:20:39.774Z,2.40
2023-01-20T05:23:07.199Z,4.25
2023-01-20T05:25:33.793Z,3.38
2023-01-20T05:28:00.742Z,2.65
2023-01-20T05:30:27.446Z,2.58
2023-01-20T05:32:55.576Z,3.35
2023-01-20T05:35:22.142Z,2.25
2023-01-20T05:37:48.716Z,2.90
2023-01-20T05:40:15.291Z,3.00
2023-01-20T05:42:41.769Z,3.08
2023-01-20T05:45:09.336Z,4.05
2023-01-20T05:47:35.942Z,2.80
2023-01-20T05:50:02.569Z,2.83
2023-01-20T05:52:29.242Z,2.63
2023-01-20T05:54:55.799Z,2.83
2023-01-20T05:57:25.774Z,2.80
2023-01-20T05:59:52.824Z,2.72
2023-01-20T06:02:20.207Z,2.50
2023-01-20T06:04:47.014Z,3.45
2023-01-20T06:07:14.059Z,2.75
2023-01-20T06:09:46.675Z,2.63
2023-01-20T06:12:13.230Z,3.38
2023-01-20T06:14:39.710Z,2.65
2023-01-20T06:17:06.233Z,3.00
2023-01-20T06:19:32.745Z,2.92
2023-01-20T06:21:59.289Z,1.80
2023-01-20T06:24:25.756Z,2.63
2023-01-20T06:26:52.329Z,2.50
2023-01-20T06:29:18.939Z,2.75
2023-01-20T06:31:45.996Z,2.47
2023-01-20T06:34:15.023Z,2.17
2023-01-20T06:36:41.619Z,2.58
2023-01-20T06:39:08.374Z,4.15
2023-01-20T06:41:34.947Z,2.67
2023-01-20T06:44:01.676Z,1.95
2023-01-20T06:46:31.109Z,2.20
2023-01-20T06:49:00.645Z,2.55
2023-01-20T06:51:29.425Z,4.95
2023-01-20T06:53:56.354Z,2.92
2023-01-20T06:56:23.777Z,4.32
2023-01-20T06:58:50.687Z,1.77
2023-01-20T07:01:28.795Z,3.50
2023-01-20T07:03:55.672Z,2.40
2023-01-20T07:06:24.954Z,2.45
2023-01-20T07:08:51.695Z,2.60
2023-01-20T07:11:18.647Z,2.13
2023-01-20T07:13:45.209Z,2.60
2023-01-20T07:16:15.193Z,2.65
2023-01-20T07:18:42.627Z,4.35
2023-01-20T07:21:11.417Z,7.50
2023-01-20T07:23:37.907Z,16.25
2023-01-20T07:26:06.786Z,19.00
2023-01-20T07:28:34.428Z,17.23
2023-01-20T07:31:12.774Z,20.73
2023-01-20T07:33:39.728Z,18.33
2023-01-20T07:36:07.811Z,18.63
2023-01-20T07:38:35.125Z,17.88
2023-01-20T07:41:05.072Z,16.67
2023-01-20T07:43:32.299Z,15.55
2023-01-20T07:46:03.666Z,14.88
2023-01-20T07:48:32.104Z,14.23
2023-01-20T07:51:05.315Z,14.27
2023-01-20T07:53:41.934Z,14.57
2023-01-20T07:56:16.493Z,12.55
2023-01-20T07:58:45.306Z,12.57
2023-01-20T08:01:16.375Z,12.30
2023-01-20T08:03:44.822Z,12.05
2023-01-20T08:06:13.945Z,11.80
2023-01-20T08:08:40.565Z,11.27
2023-01-20T08:11:08.557Z,11.05
2023-01-20T08:13:35.396Z,10.82
2023-01-20T08:16:04.132Z,10.57
2023-01-20T08:18:31.180Z,10.35
2023-01-20T08:20:58.102Z,10.52
2023-01-20T08:23:24.662Z,9.57
2023-01-20T08:26:02.210Z,10.15
2023-01-20T08:28:29.780Z,10.27
2023-01-20T08:31:06.982Z,35.50
2023-01-20T08:33:33.778Z,30.63
2023-01-20T08:36:11.841Z,22.33
2023-01-20T08:38:39.336Z,20.33
2023-01-20T08:41:14.942Z,20.88
2023-01-20T08:43:41.430Z,37.15
2023-01-20T08:46:11.011Z,80.57
2023-01-20T08:48:39.157Z,28.50
2023-01-20T08:51:12.175Z,43.20
2023-01-20T08:53:38.920Z,33.45
2023-01-20T08:56:06.162Z,33.35
2023-01-20T08:58:32.746Z,44.75
2023-01-20T09:01:07.687Z,40.20
2023-01-20T09:03:34.272Z,35.92
2023-01-20T09:06:04.644Z,37.67
2023-01-20T09:08:31.246Z,34.42
2023-01-20T09:11:08.380Z,35.00
2023-01-20T09:13:34.979Z,32.10
2023-01-20T09:16:02.094Z,31.55
2023-01-20T09:18:28.676Z,31.70
2023-01-20T09:20:57.991Z,30.35
2023-01-20T10:01:20.285Z,17.65
2023-01-20T10:04:11.328Z,18.42
2023-01-20T10:06:58.060Z,17.33
2023-01-20T10:09:38.620Z,17.40
2023-01-20T10:12:16.232Z,17.15
2023-01-20T10:14:50.823Z,17.65
2023-01-20T10:17:45.750Z,16.50
2023-01-20T10:20:18.021Z,16.63
2023-01-20T10:23:01.039Z,17.45
2023-01-20T10:25:37.850Z,17.27
2023-01-20T10:28:14.004Z,36.65
2023-01-20T10:30:40.772Z,37.50
2023-01-20T10:33:12.816Z,37.00
2023-01-20T10:35:44.467Z,45.07
2023-01-20T10:38:43.244Z,97.47
2023-01-20T10:41:19.618Z,85.40
2023-01-20T10:43:47.880Z,103.63
2023-01-20T10:46:35.532Z,115.45
2023-01-20T10:49:18.656Z,136.48
2023-01-20T10:54:20.880Z,154.65
2023-01-20T10:56:53.819Z,136.15
2023-01-20T10:59:32.247Z,171.40
2023-01-20T11:02:20.192Z,157.32
2023-01-20T11:04:52.839Z,155.15
2023-01-20T11:07:19.574Z,127.28
2023-01-20T11:09:49.032Z,119.72
2023-01-20T11:12:27.134Z,110.80
2023-01-20T11:14:56.087Z,112.15
2023-01-20T11:17:22.626Z,202.65
2023-01-20T11:19:55.137Z,146.38
2023-01-20T11:22:34.412Z,123.97
2023-01-20T11:25:04.089Z,111.53
2023-01-20T11:27:44.579Z,110.13
2023-01-20T11:30:27.618Z,102.13
2023-01-20T11:35:57.981Z,96.65
2023-01-20T11:38:27.294Z,96.45
2023-01-20T11:40:55.189Z,94.85
2023-01-20T11:43:51.776Z,92.88
2023-01-20T11:46:33.403Z,88.28
2023-01-20T11:49:17.785Z,86.20
2023-01-20T11:51:50.721Z,82.15
2023-01-20T11:54:29.411Z,83.22
2023-01-20T11:57:07.924Z,77.20
2023-01-20T11:59:36.529Z,74.93
2023-01-20T12:02:08.772Z,76.13
2023-01-20T12:04:56.445Z,74.07
2023-01-20T12:07:30.089Z,71.18
2023-01-20T12:10:04.583Z,71.07
2023-01-20T12:12:45.308Z,67.15
2023-01-20T12:15:15.216Z,67.47
2023-01-20T12:17:45.833Z,64.25
2023-01-20T12:20:53.959Z,62.10
2023-01-20T12:23:39.203Z,60.80
2023-01-20T12:26:06.736Z,58.53
2023-01-20T12:28:54.324Z,59.47
2023-01-20T12:31:23.960Z,58.53
2023-01-20T12:33:53.503Z,55.97
2023-01-20T12:36:32.138Z,54.70
2023-01-20T12:39:13.945Z,54.00
2023-01-20T12:41:52.657Z,50.95
2023-01-20T12:45:04.195Z,51.42
2023-01-20T12:47:42.501Z,47.30
2023-01-20T12:50:27.466Z,50.33
2023-01-20T12:52:54.847Z,49.28
2023-01-20T12:55:55.786Z,48.85
2023-01-20T12:58:48.309Z,47.20
2023-01-20T13:01:52.275Z,77.13
2023-01-20T13:04:57.887Z,58.78
2023-01-20T13:07:36.214Z,75.07
2023-01-20T13:10:34.512Z,93.70
2023-01-20T13:13:19.015Z,103.40
2023-01-20T13:15:54.639Z,78.10
2023-01-20T13:18:31.454Z,78.25
2023-01-20T13:20:58.219Z,77.20
2023-01-20T13:23:37.917Z,113.82
2023-01-20T13:26:06.216Z,103.47
2023-01-20T13:28:33.207Z,139.35
2023-01-20T13:31:01.810Z,134.45
2023-01-20T13:33:40.037Z,110.90
2023-01-20T13:36:21.071Z,103.10
2023-01-20T13:39:09.045Z,96.30
2023-01-20T13:41:50.939Z,93.30
2023-01-20T13:44:37.737Z,92.10
2023-01-20T13:47:08.918Z,86.47
2023-01-20T13:49:46.660Z,83.57
2023-01-20T13:52:13.336Z,82.55
2023-01-20T13:54:46.979Z,80.78
2023-01-20T13:57:24.272Z,77.25
2023-01-20T13:59:52.091Z,74.85
2023-01-20T14:02:20.228Z,76.68
2023-01-20T14:04:47.507Z,70.38
2023-01-20T14:07:24.474Z,72.35
2023-01-20T14:09:52.966Z,67.97
2023-01-20T14:12:19.755Z,65.88
2023-01-20T14:14:50.275Z,66.80
2023-01-20T14:17:23.048Z,68.80
2023-01-20T14:19:52.856Z,137.05
2023-01-20T14:22:24.545Z,153.73
2023-01-20T14:24:52.966Z,99.32
2023-01-20T14:27:28.024Z,128.60
2023-01-20T14:29:56.555Z,144.98
2023-01-20T14:32:26.035Z,124.50
2023-01-20T14:34:53.308Z,188.68
2023-01-20T14:37:27.645Z,145.32
2023-01-20T14:39:56.804Z,199.00
2023-01-20T14:42:24.430Z,184.15
2023-01-20T14:44:52.543Z,189.57
2023-01-20T14:47:20.745Z,160.57
2023-01-20T14:49:49.339Z,148.98
2023-01-20T14:52:28.839Z,182.68
2023-01-20T14:54:56.591Z,176.38
2023-01-20T14:57:26.127Z,197.77
2023-01-20T15:00:12.251Z,182.73
2023-01-20T15:02:40.611Z,155.70
2023-01-20T15:05:31.220Z,153.65
2023-01-20T15:08:26.317Z,150.90
2023-01-20T15:11:16.416Z,145.98
2023-01-20T15:14:04.898Z,236.45
2023-01-20T15:16:38.598Z,235.07
2023-01-20T15:19:18.295Z,196.30
2023-01-20T15:21:49.924Z,177.57
2023-01-20T15:24:18.524Z,163.85
2023-01-20T15:26:46.785Z,161.80
2023-01-20T15:29:39.349Z,153.82
2023-01-20T15:32:11.139Z,149.85
2023-01-20T15:34:37.886Z,144.13
2023-01-20T15:37:11.379Z,140.43
2023-01-20T15:39:37.925Z,136.77
2023-01-20T15:42:06.275Z,132.45
2023-01-20T15:44:32.790Z,131.43
2023-01-20T15:46:59.265Z,128.23
2023-01-20T15:49:25.839Z,121.85
2023-01-20T15:51:52.715Z,121.80
2023-01-20T15:54:19.245Z,116.97
2023-01-20T15:56:45.804Z,111.85
2023-01-20T15:59:18.181Z,112.47
2023-01-20T16:01:50.006Z,104.22
2023-01-20T16:04:16.949Z,103.63
2023-01-20T16:06:44.157Z,103.75
2023-01-20T16:09:20.957Z,100.72
2023-01-20T16:11:47.627Z,99.10
2023-01-20T16:14:14.188Z,96.00
2023-01-20T16:16:41.097Z,94.50
2023-01-20T16:19:09.607Z,90.95
2023-01-20T16:21:36.091Z,91.47
2023-01-20T16:24:02.506Z,88.75
2023-01-20T16:26:31.466Z,88.95
2023-01-20T16:28:58.535Z,83.65
2023-01-20T16:31:26.886Z,83.40
2023-01-20T16:33:54.232Z,80.15
2023-01-20T16:36:22.460Z,79.38
2023-01-20T16:38:49.929Z,75.80
2023-01-20T16:41:30.936Z,76.97
2023-01-20T16:43:58.494Z,75.28
2023-01-20T16:46:27.667Z,74.35
2023-01-20T16:48:59.360Z,71.68
2023-01-20T16:51:26.653Z,71.60
2023-01-20T16:53:54.275Z,67.55
2023-01-20T16:56:27.699Z,65.75
2023-01-20T16:58:57.841Z,65.13
2023-01-20T17:01:25.607Z,63.88
2023-01-20T17:03:54.722Z,62.45
2023-01-20T17:06:24.090Z,62.83
2023-01-20T17:08:55.890Z,61.17
2023-01-20T17:11:25.045Z,61.20
2023-01-20T17:13:52.670Z,58.53
2023-01-20T17:16:20.526Z,56.92
2023-01-20T17:18:55.211Z,56.08
2023-01-20T17:21:23.080Z,52.90
2023-01-20T17:23:57.059Z,54.03
2023-01-20T17:26:24.497Z,53.15
2023-01-20T17:28:57.045Z,52.78
2023-01-20T17:31:24.181Z,49.20
2023-01-20T17:33:51.445Z,48.97
2023-01-20T17:36:18.389Z,47.15
2023-01-20T17:38:45.476Z,47.42
2023-01-20T17:41:13.360Z,47.35
2023-01-20T17:43:46.140Z,45.83
2023-01-20T17:46:19.052Z,45.10
2023-01-20T17:51:15.369Z,43.45
2023-01-20T17:53:42.804Z,42.28
2023-01-20T17:56:13.164Z,42.08
2023-01-20T17:58:43.998Z,41.30
2023-01-20T18:01:20.867Z,40.55
2023-01-20T18:03:49.859Z,39.17
2023-01-20T18:06:18.554Z,38.65
2023-01-20T18:08:50.772Z,36.38
2023-01-20T18:11:19.522Z,36.65
2023-01-20T18:13:46.763Z,37.03
2023-01-20T18:16:15.181Z,36.58
2023-01-20T18:18:45.648Z,35.00
2023-01-20T18:21:13.630Z,35.97
2023-01-20T18:23:41.215Z,34.13
2023-01-20T18:26:10.251Z,33.50
2023-01-20T18:28:37.782Z,33.53
2023-01-20T18:31:10.621Z,31.92
2023-01-20T18:36:07.907Z,31.63
2023-01-20T18:38:34.599Z,31.70
2023-01-20T18:41:04.207Z,30.35
2023-01-20T18:43:31.232Z,31.13
2023-01-20T18:45:57.735Z,28.40
2023-01-20T18:48:27.450Z,29.92
2023-01-20T18:50:59.826Z,27.75
2023-01-20T18:53:28.004Z,27.52
2023-01-20T18:56:01.225Z,27.27
2023-01-20T18:58:31.055Z,26.45
2023-01-20T19:01:09.240Z,26.38
2023-01-20T19:03:37.005Z,26.60
2023-01-20T19:06:08.619Z,24.70
2023-01-20T19:08:35.139Z,25.15
2023-01-20T19:11:03.728Z,25.20
2023-01-20T19:13:30.287Z,23.25
2023-01-20T19:15:57.107Z,24.83
2023-01-20T19:18:24.038Z,23.27
2023-01-20T19:20:50.651Z,22.05
2023-01-20T19:23:17.627Z,23.13
2023-01-20T19:25:44.391Z,23.25
2023-01-20T19:28:12.128Z,22.73
2023-01-20T19:30:38.625Z,22.08
2023-01-20T19:33:05.864Z,21.02
2023-01-20T19:35:33.581Z,21.35
2023-01-20T19:38:00.168Z,21.55
2023-01-20T19:40:26.683Z,20.23
2023-01-20T19:42:53.898Z,19.83
2023-01-20T19:45:20.432Z,20.42
2023-01-20T19:47:46.991Z,19.05
2023-01-20T19:50:13.538Z,18.85
2023-01-20T19:52:40.227Z,18.40
2023-01-20T19:55:06.698Z,17.98
2023-01-20T19:57:33.202Z,18.40
2023-01-20T19:59:59.711Z,17.58
2023-01-20T20:02:27.569Z,17.50
2023-01-20T20:04:54.064Z,17.83
2023-01-20T20:07:20.546Z,16.85
2023-01-20T20:09:47.026Z,16.38
2023-01-20T20:12:13.693Z,16.55
2023-01-20T20:14:40.300Z,16.17
2023-01-20T20:17:06.805Z,16.33
2023-01-20T20:19:33.266Z,15.70
2023-01-20T20:21:59.732Z,15.73
2023-01-20T20:24:26.233Z,15.55
2023-01-20T20:26:52.728Z,16.15
2023-01-20T20:29:19.685Z,14.90
2023-01-20T20:31:46.885Z,14.75
2023-01-20T20:34:16.451Z,13.68
2023-01-20T20:36:43.016Z,13.70
2023-01-20T20:39:13.737Z,14.27
2023-01-20T20:41:40.271Z,13.30
2023-01-20T20:44:07.002Z,13.43
2023-01-20T20:46:33.611Z,13.32
2023-01-20T20:49:01.102Z,13.02
2023-01-20T20:51:31.640Z,12.52
2023-01-20T20:54:00.400Z,13.10
2023-01-20T20:56:27.995Z,12.77
2023-01-20T20:59:01.420Z,11.90
2023-01-20T21:01:30.190Z,12.35
2023-01-20T21:03:57.979Z,12.02
2023-01-20T21:06:25.279Z,11.88
2023-01-20T21:08:52.772Z,11.00
2023-01-20T21:11:20.261Z,11.43
2023-01-20T21:13:49.367Z,11.45
2023-01-20T21:16:20.749Z,10.45
2023-01-20T21:18:47.786Z,11.38
2023-01-20T21:21:17.011Z,10.95
2023-01-20T21:23:50.977Z,11.07
2023-01-20T21:26:17.993Z,10.35
2023-01-20T21:28:45.441Z,10.32
2023-01-20T21:31:14.340Z,10.70
2023-01-20T21:33:42.248Z,10.25
2023-01-20T21:36:12.339Z,9.15
2023-01-20T21:38:42.800Z,10.20
2023-01-20T21:41:10.591Z,10.55
2023-01-20T21:43:58.207Z,10.00
2023-01-20T21:46:26.954Z,10.27
2023-01-20T21:49:11.905Z,9.70
2023-01-20T21:51:57.318Z,9.85
2023-01-20T21:54:28.861Z,9.82
2023-01-20T21:56:55.711Z,8.80
2023-01-20T21:59:22.604Z,9.13
2023-01-20T22:01:49.178Z,8.65
2023-01-20T22:04:15.713Z,9.13
2023-01-20T22:06:42.933Z,8.68
2023-01-20T22:09:09.446Z,8.98
2023-01-20T22:11:36.089Z,8.93
2023-01-20T22:14:02.922Z,9.48
2023-01-20T22:16:29.502Z,8.60
2023-01-20T22:18:55.986Z,7.85
2023-01-20T22:21:23.042Z,8.38
2023-01-20T22:23:49.613Z,8.02
2023-01-20T22:26:16.148Z,8.10
2023-01-20T22:28:42.994Z,7.90
2023-01-20T22:31:17.163Z,8.00
2023-01-20T22:33:43.739Z,7.68
2023-01-20T22:36:10.333Z,7.60
2023-01-20T22:38:36.828Z,7.82
2023-01-20T22:41:05.618Z,7.60
2023-01-20T22:43:33.715Z,7.85
2023-01-20T22:46:02.150Z,7.40
2023-01-20T22:48:31.781Z,7.47
2023-01-20T22:51:05.505Z,7.80
2023-01-20T22:53:32.294Z,8.55
2023-01-20T22:56:07.169Z,7.13
2023-01-20T22:58:37.242Z,7.72
2023-01-20T23:01:05.051Z,6.40
2023-01-20T23:03:31.606Z,7.40
2023-01-20T23:05:59.970Z,6.85
2023-01-20T23:08:28.291Z,6.65
2023-01-20T23:10:56.614Z,7.35
2023-01-20T23:13:24.515Z,7.25
2023-01-20T23:15:51.564Z,6.80
2023-01-20T23:18:19.149Z,7.15
2023-01-20T23:20:49.638Z,7.20
2023-01-20T23:23:16.662Z,6.90
2023-01-20T23:25:43.143Z,7.30
2023-01-20T23:28:10.395Z,7.15
2023-01-20T23:30:37.335Z,6.72
2023-01-20T23:33:04.623Z,7.18
2023-01-20T23:35:31.159Z,6.15
2023-01-20T23:37:57.625Z,7.20
2023-01-20T23:40:24.571Z,7.25
2023-01-20T23:42:51.051Z,6.97
2023-01-20T23:45:17.750Z,6.38
2023-01-20T23:47:44.316Z,6.82
2023-01-20T23:50:11.448Z,7.22
2023-01-20T23:52:37.946Z,7.10
2023-01-20T23:55:04.998Z,6.55
2023-01-20T23:57:31.516Z,6.90
2023-01-20T23:59:58.046Z,7.07
